Maersk Weymouth — VRFS9 — position and weather

sailwx.info

Track history (hours):
 
Tides and Currents Weather Stations Pressure Air Temp Water Temp Dewpoint Dewpoint Depression Visibility Wind Speed Wind Dir Waves Ship Positions

Maersk Weymouth

Last reported at 2016-Dec-03 18:32 UTC. Time now 2016-Dec-11 10:03 UTC.
Position N 09°22' W 079°53'.

Length 175 m; draft 7.8 m.

Type: Cargo ship. MMSI: 477622100.

Date/timePositionNaut miles runAvg speedWind from/ knotsBaromVisibWave heightAir tempDewpointWater temp
2016-Dec-03 18:32N 09°22' W 079°53'0 0.0
2016-Dec-03 17:32N 09°22' W 079°53'0 0.0
2016-Dec-03 16:32N 09°22' W 079°53'0 0.0
2016-Dec-03 15:32N 09°22' W 079°53'0 0.0
2016-Dec-03 14:32N 09°22' W 079°53'0 0.0
2016-Dec-03 13:29N 09°22' W 079°53'2 2.7
2016-Dec-03 12:33N 09°24' W 079°54'2 1.6
2016-Dec-03 11:33N 09°26' W 079°53'3 3.2
2016-Dec-03 10:31N 09°29' W 079°53'1 1.2
2016-Dec-03 09:33N 09°28' W 079°52'2 2.0
2016-Dec-03 08:30N 09°30' W 079°51'1 1.3
2016-Dec-03 07:33N 09°30' W 079°52'2 2.1
2016-Dec-03 06:33N 09°30' W 079°50'1 1.1
2016-Dec-03 05:26N 09°30' W 079°51'1 0.9
2016-Dec-03 04:33N 09°30' W 079°52'1 0.7
2016-Dec-03 03:33N 09°30' W 079°53'1 0.6
2016-Dec-03 02:33N 09°30' W 079°53'1 0.5
2016-Dec-03 01:24N 09°30' W 079°54'  
2016-Nov-28 05:33N 25°30' W 079°34'1414.3
2016-Nov-28 04:33N 25°43' W 079°39'1312.9
2016-Nov-28 03:33N 25°54' W 079°46'1212.5
2016-Nov-28 02:34N 26°01' W 079°58'9 9.1
2016-Nov-28 01:33N 26°05' W 080°07'1 0.8
2016-Nov-28 00:33N 26°04' W 080°07'0 0.0
2016-Nov-27 23:33N 26°04' W 080°07'0 0.0
2016-Nov-27 22:28N 26°04' W 080°07'0 0.0
2016-Nov-27 21:28N 26°04' W 080°07'0 0.0
2016-Nov-27 20:31N 26°04' W 080°07'0 0.0
2016-Nov-27 19:31N 26°04' W 080°07'0 0.0
2016-Nov-27 18:31N 26°04' W 080°07'0 0.0
2016-Nov-27 17:31N 26°04' W 080°07'0 0.0
2016-Nov-27 16:31N 26°04' W 080°07'0 0.0
2016-Nov-27 15:31N 26°04' W 080°07'0 0.0
2016-Nov-27 14:31N 26°04' W 080°07'0 0.0
2016-Nov-27 13:33N 26°04' W 080°07'5 4.7
2016-Nov-27 12:33N 26°06' W 080°02'3 3.0
2016-Nov-27 11:33N 26°09' W 080°00'8 8.2
2016-Nov-27 10:33N 26°14' W 079°54'9 8.6
2016-Nov-27 09:33N 26°23' W 079°51'9 8.6
2016-Nov-27 08:33N 26°31' W 079°50'20 9.5
2016-Nov-27 06:25N 26°51' W 079°47'910.5
2016-Nov-27 05:33N 27°00' W 079°45'26110.7
2016-Nov-26 05:13N 31°20' W 080°08'912.9
2016-Nov-26 04:33N 31°27' W 080°14'1313.1
2016-Nov-26 03:33N 31°37' W 080°23'1010.1
2016-Nov-26 02:33N 31°46' W 080°30'10 9.8
2016-Nov-26 01:33N 31°53' W 080°37'10 9.6
2016-Nov-26 00:33N 31°59' W 080°46'1211.8
2016-Nov-25 23:33N 32°05' W 080°59'7 7.2
2016-Nov-25 22:33N 32°06' W 081°07'1 1.2
2016-Nov-25 21:33N 32°07' W 081°08'0 0.0
2016-Nov-25 20:32N 32°07' W 081°08'0 0.0
2016-Nov-25 19:26N 32°07' W 081°08'0 0.0
2016-Nov-25 18:32N 32°07' W 081°08'0 0.0
2016-Nov-25 17:26N 32°07' W 081°08'0 0.0
2016-Nov-25 16:32N 32°07' W 081°08'0 0.0
2016-Nov-25 15:26N 32°07' W 081°08'0 0.0
2016-Nov-25 14:32N 32°07' W 081°08'0 0.0
2016-Nov-25 13:32N 32°07' W 081°08'0 0.0
2016-Nov-25 12:32N 32°07' W 081°08'0 0.0
2016-Nov-25 11:32N 32°07' W 081°08'0 0.0
2016-Nov-25 10:32N 32°07' W 081°08'0 0.0
2016-Nov-25 09:32N 32°07' W 081°08'0 0.0
2016-Nov-25 08:32N 32°07' W 081°08'0 0.0
2016-Nov-25 07:20N 32°07' W 081°08'0 0.1
2016-Nov-25 06:33N 32°07' W 081°08'6 5.7
2016-Nov-25 05:33N 32°05' W 081°01'10 9.7
2016-Nov-25 04:33N 32°02' W 080°50'1110.6
2016-Nov-25 03:33N 31°57' W 080°40'5 5.5
2016-Nov-25 02:33N 31°59' W 080°34'7 7.3
2016-Nov-25 01:33N 32°00' W 080°25'11 9.4
2016-Nov-25 00:25N 32°02' W 080°13'  
Track history (hours):
 
Tides and Currents Weather Stations Pressure Air Temp Water Temp Dewpoint Dewpoint Depression Visibility Wind Speed Wind Dir Waves Ship Positions

Maersk Weymouth

Last reported at 2016-Dec-03 18:32 UTC. Time now 2016-Dec-11 10:03 UTC.
Position N 09°22' W 079°53'.

Length 175 m; draft 7.8 m.

Type: Cargo ship. MMSI: 477622100.

Date/timePositionNaut miles runAvg speedWind from/ knotsBaromVisibWave heightAir tempDewpointWater temp
2016-Dec-03 18:32N 09°22' W 079°53'0 0.0
2016-Dec-03 17:32N 09°22' W 079°53'0 0.0
2016-Dec-03 16:32N 09°22' W 079°53'0 0.0
2016-Dec-03 15:32N 09°22' W 079°53'0 0.0
2016-Dec-03 14:32N 09°22' W 079°53'0 0.0
2016-Dec-03 13:29N 09°22' W 079°53'2 2.7
2016-Dec-03 12:33N 09°24' W 079°54'2 1.6
2016-Dec-03 11:33N 09°26' W 079°53'3 3.2
2016-Dec-03 10:31N 09°29' W 079°53'1 1.2
2016-Dec-03 09:33N 09°28' W 079°52'2 2.0
2016-Dec-03 08:30N 09°30' W 079°51'1 1.3
2016-Dec-03 07:33N 09°30' W 079°52'2 2.1
2016-Dec-03 06:33N 09°30' W 079°50'1 1.1
2016-Dec-03 05:26N 09°30' W 079°51'1 0.9
2016-Dec-03 04:33N 09°30' W 079°52'1 0.7
2016-Dec-03 03:33N 09°30' W 079°53'1 0.6
2016-Dec-03 02:33N 09°30' W 079°53'1 0.5
2016-Dec-03 01:24N 09°30' W 079°54'  
2016-Nov-28 05:33N 25°30' W 079°34'1414.3
2016-Nov-28 04:33N 25°43' W 079°39'1312.9
2016-Nov-28 03:33N 25°54' W 079°46'1212.5
2016-Nov-28 02:34N 26°01' W 079°58'9 9.1
2016-Nov-28 01:33N 26°05' W 080°07'1 0.8
2016-Nov-28 00:33N 26°04' W 080°07'0 0.0
2016-Nov-27 23:33N 26°04' W 080°07'0 0.0
2016-Nov-27 22:28N 26°04' W 080°07'0 0.0
2016-Nov-27 21:28N 26°04' W 080°07'0 0.0
2016-Nov-27 20:31N 26°04' W 080°07'0 0.0
2016-Nov-27 19:31N 26°04' W 080°07'0 0.0
2016-Nov-27 18:31N 26°04' W 080°07'0 0.0
2016-Nov-27 17:31N 26°04' W 080°07'0 0.0
2016-Nov-27 16:31N 26°04' W 080°07'0 0.0
2016-Nov-27 15:31N 26°04' W 080°07'0 0.0
2016-Nov-27 14:31N 26°04' W 080°07'0 0.0
2016-Nov-27 13:33N 26°04' W 080°07'5 4.7
2016-Nov-27 12:33N 26°06' W 080°02'3 3.0
2016-Nov-27 11:33N 26°09' W 080°00'8 8.2
2016-Nov-27 10:33N 26°14' W 079°54'9 8.6
2016-Nov-27 09:33N 26°23' W 079°51'9 8.6
2016-Nov-27 08:33N 26°31' W 079°50'20 9.5
2016-Nov-27 06:25N 26°51' W 079°47'910.5
2016-Nov-27 05:33N 27°00' W 079°45'26110.7
2016-Nov-26 05:13N 31°20' W 080°08'912.9
2016-Nov-26 04:33N 31°27' W 080°14'1313.1
2016-Nov-26 03:33N 31°37' W 080°23'1010.1
2016-Nov-26 02:33N 31°46' W 080°30'10 9.8
2016-Nov-26 01:33N 31°53' W 080°37'10 9.6
2016-Nov-26 00:33N 31°59' W 080°46'1211.8
2016-Nov-25 23:33N 32°05' W 080°59'7 7.2
2016-Nov-25 22:33N 32°06' W 081°07'1 1.2
2016-Nov-25 21:33N 32°07' W 081°08'0 0.0
2016-Nov-25 20:32N 32°07' W 081°08'0 0.0
2016-Nov-25 19:26N 32°07' W 081°08'0 0.0
2016-Nov-25 18:32N 32°07' W 081°08'0 0.0
2016-Nov-25 17:26N 32°07' W 081°08'0 0.0
2016-Nov-25 16:32N 32°07' W 081°08'0 0.0
2016-Nov-25 15:26N 32°07' W 081°08'0 0.0
2016-Nov-25 14:32N 32°07' W 081°08'0 0.0
2016-Nov-25 13:32N 32°07' W 081°08'0 0.0
2016-Nov-25 12:32N 32°07' W 081°08'0 0.0
2016-Nov-25 11:32N 32°07' W 081°08'0 0.0
2016-Nov-25 10:32N 32°07' W 081°08'0 0.0
2016-Nov-25 09:32N 32°07' W 081°08'0 0.0
2016-Nov-25 08:32N 32°07' W 081°08'0 0.0
2016-Nov-25 07:20N 32°07' W 081°08'0 0.1
2016-Nov-25 06:33N 32°07' W 081°08'6 5.7
2016-Nov-25 05:33N 32°05' W 081°01'10 9.7
2016-Nov-25 04:33N 32°02' W 080°50'1110.6
2016-Nov-25 03:33N 31°57' W 080°40'5 5.5
2016-Nov-25 02:33N 31°59' W 080°34'7 7.3
2016-Nov-25 01:33N 32°00' W 080°25'11 9.4
2016-Nov-25 00:25N 32°02' W 080°13'  

Dump ship's entire track history